Time;durP1;ratioP1;P1;durP2;ratioP2;P2;SDS_P1;SDS_P2;PMS_P1;PMS_P2;Temp;Humidity;BMP_temperature;BMP_pressure;BME280_temperature;BME280_humidity;BME280_pressure;Samples;Min_cycle;Max_cycle;Signal;HPM_P1;HPM_P2
2021/11/24 00:00:56;;;;;;;20.80;9.90;;;5.60;97.30;;;;;;5058893;28;20620;-81
2021/11/24 00:03:22;;;;;;;22.20;9.40;;;5.60;97.30;;;;;;5058320;28;20244;-81
2021/11/24 00:05:48;;;;;;;28.63;11.40;;;5.60;97.30;;;;;;5059287;28;20203;-81
2021/11/24 00:08:14;;;;;;;23.40;10.03;;;5.60;97.30;;;;;;5059137;28;20367;-82
2021/11/24 00:10:39;;;;;;;26.03;10.30;;;5.60;97.30;;;;;;5058454;28;20410;-81
2021/11/24 00:13:06;;;;;;;22.93;10.33;;;5.60;97.30;;;;;;5058872;28;20210;-82
2021/11/24 00:15:33;;;;;;;23.57;9.43;;;5.60;97.30;;;;;;5058821;28;20199;-81
2021/11/24 00:17:58;;;;;;;22.43;10.13;;;5.60;97.30;;;;;;5059441;28;20453;-82
2021/11/24 00:20:24;;;;;;;26.57;10.50;;;5.60;97.30;;;;;;5060544;28;20431;-81
2021/11/24 00:22:50;;;;;;;27.73;11.30;;;5.60;97.30;;;;;;5058949;28;20304;-81
2021/11/24 00:25:16;;;;;;;28.27;12.90;;;5.60;97.30;;;;;;5059255;28;20223;-81
2021/11/24 00:27:41;;;;;;;30.63;12.20;;;5.60;97.30;;;;;;5058864;28;20836;-81
2021/11/24 00:30:08;;;;;;;28.57;11.33;;;5.60;97.30;;;;;;5059558;28;20431;-81
2021/11/24 00:32:34;;;;;;;29.90;10.27;;;5.60;97.30;;;;;;5059756;28;20637;-81
2021/11/24 00:35:00;;;;;;;26.93;11.37;;;5.60;97.30;;;;;;5060700;28;20410;-81
2021/11/24 00:37:28;;;;;;;25.33;10.17;;;5.60;97.30;;;;;;5060397;28;20840;-81
2021/11/24 00:39:54;;;;;;;24.60;10.50;;;5.60;97.30;;;;;;5060349;28;20417;-81
2021/11/24 00:42:19;;;;;;;24.23;10.30;;;5.70;97.30;;;;;;5062133;28;20450;-81
2021/11/24 00:44:45;;;;;;;21.83;11.00;;;5.60;97.30;;;;;;5061311;28;20171;-81
2021/11/24 00:47:10;;;;;;;24.67;10.80;;;5.70;97.30;;;;;;5060836;28;20249;-81
2021/11/24 00:49:39;;;;;;;25.67;11.23;;;5.60;97.30;;;;;;5061764;28;20230;-81
2021/11/24 00:52:06;;;;;;;27.10;10.93;;;5.60;97.30;;;;;;5061672;28;20183;-81
2021/11/24 00:54:31;;;;;;;24.27;9.97;;;5.60;97.30;;;;;;5060832;28;20486;-81
2021/11/24 00:56:57;;;;;;;28.60;11.17;;;5.60;97.30;;;;;;5061708;28;20468;-81
2021/11/24 00:59:23;;;;;;;21.40;10.07;;;5.70;97.30;;;;;;5062392;28;20203;-81
2021/11/24 01:01:48;;;;;;;32.13;12.00;;;5.60;97.30;;;;;;5062971;28;20448;-81
2021/11/24 01:04:14;;;;;;;30.17;11.20;;;5.60;97.30;;;;;;5059382;28;20176;-81
2021/11/24 01:06:40;;;;;;;31.03;11.17;;;5.60;97.30;;;;;;5054866;28;20295;-81
2021/11/24 01:09:05;;;;;;;33.57;11.40;;;5.60;97.30;;;;;;5056052;28;20199;-82
2021/11/24 01:11:31;;;;;;;26.20;9.50;;;5.60;97.30;;;;;;5059078;28;20183;-82
2021/11/24 01:13:57;;;;;;;27.37;10.40;;;5.60;97.30;;;;;;5058227;28;20179;-82
2021/11/24 01:16:23;;;;;;;26.40;11.10;;;5.60;97.30;;;;;;5058394;28;20479;-81
2021/11/24 01:18:49;;;;;;;28.27;10.83;;;5.60;97.30;;;;;;5058680;28;20422;-82
2021/11/24 01:21:14;;;;;;;30.53;12.23;;;5.60;97.30;;;;;;5058561;28;20202;-82
2021/11/24 01:23:40;;;;;;;26.40;12.17;;;5.60;97.30;;;;;;5058342;28;20598;-82
2021/11/24 01:26:06;;;;;;;28.27;12.60;;;5.70;97.30;;;;;;5058435;28;20226;-81
2021/11/24 01:28:32;;;;;;;27.77;11.30;;;5.70;97.30;;;;;;5057853;28;20243;-81
2021/11/24 01:30:57;;;;;;;26.47;10.83;;;5.70;97.30;;;;;;5058396;28;20271;-81
2021/11/24 01:33:23;;;;;;;26.37;11.87;;;5.70;97.30;;;;;;5057818;28;20427;-82
2021/11/24 01:35:49;;;;;;;35.00;13.27;;;5.70;97.30;;;;;;5059867;28;20278;-81
2021/11/24 01:38:14;;;;;;;30.07;12.07;;;5.60;97.30;;;;;;5058054;28;20538;-82
2021/11/24 01:40:40;;;;;;;23.17;10.00;;;5.60;97.30;;;;;;5057838;28;20230;-82
2021/11/24 01:43:08;;;;;;;31.77;11.77;;;5.60;97.30;;;;;;5059143;28;20706;-81
2021/11/24 01:45:35;;;;;;;26.57;10.90;;;5.60;97.30;;;;;;5057525;28;20274;-81
2021/11/24 01:48:01;;;;;;;34.40;11.77;;;5.60;97.30;;;;;;5058044;28;20417;-82
2021/11/24 01:50:27;;;;;;;29.30;11.20;;;5.60;97.30;;;;;;5058555;28;20468;-82
2021/11/24 01:52:53;;;;;;;28.83;12.00;;;5.60;97.30;;;;;;5058233;28;21008;-81
2021/11/24 01:55:20;;;;;;;35.40;12.50;;;5.60;97.30;;;;;;5057889;28;20560;-82
2021/11/24 01:57:49;;;;;;;29.50;13.03;;;5.60;97.30;;;;;;5058595;28;20633;-82
2021/11/24 02:00:22;;;;;;;34.73;11.93;;;5.60;97.30;;;;;;5058222;28;20442;-81
2021/11/24 02:02:48;;;;;;;31.77;12.27;;;5.60;97.30;;;;;;5058403;28;20525;-83
2021/11/24 02:05:14;;;;;;;34.57;12.17;;;5.60;97.30;;;;;;5057517;28;20466;-82
2021/11/24 02:07:40;;;;;;;27.87;11.90;;;5.60;97.30;;;;;;5057911;28;20247;-81
2021/11/24 02:10:06;;;;;;;29.60;10.27;;;5.60;97.30;;;;;;5058456;28;20418;-81
2021/11/24 02:12:31;;;;;;;32.07;11.83;;;5.60;97.30;;;;;;5057466;28;20176;-82
2021/11/24 02:14:58;;;;;;;34.90;13.13;;;5.60;97.30;;;;;;5057787;28;20180;-81
2021/11/24 02:17:23;;;;;;;32.20;11.93;;;5.60;97.30;;;;;;5058281;28;20187;-84
2021/11/24 02:19:49;;;;;;;31.87;13.00;;;5.60;97.30;;;;;;5056208;28;20920;-83
2021/11/24 02:22:15;;;;;;;32.70;13.40;;;5.60;97.30;;;;;;5055232;28;20242;-83
2021/11/24 02:24:41;;;;;;;32.47;12.40;;;5.60;97.30;;;;;;5056005;28;20180;-83
2021/11/24 02:27:09;;;;;;;31.50;12.27;;;5.60;97.30;;;;;;5055720;28;20196;-83
2021/11/24 02:29:35;;;;;;;34.37;12.97;;;5.50;97.30;;;;;;5055568;28;20425;-83
2021/11/24 02:32:02;;;;;;;32.40;12.70;;;5.50;97.30;;;;;;5056801;28;20414;-83
2021/11/24 02:34:29;;;;;;;35.17;12.20;;;5.50;97.30;;;;;;5056834;28;20421;-83
2021/11/24 02:36:55;;;;;;;34.63;12.90;;;5.50;97.30;;;;;;5055652;28;20438;-83
2021/11/24 02:39:21;;;;;;;31.80;13.10;;;5.50;97.30;;;;;;5055538;28;20520;-82
2021/11/24 02:41:47;;;;;;;30.33;12.40;;;5.50;97.30;;;;;;5055474;28;20512;-83
2021/11/24 02:44:17;;;;;;;30.60;12.00;;;5.40;97.30;;;;;;5055048;28;20560;-83
2021/11/24 02:46:43;;;;;;;32.53;13.00;;;5.40;97.30;;;;;;5055562;28;20198;-83
2021/11/24 02:49:08;;;;;;;30.23;13.40;;;5.40;97.30;;;;;;5055480;28;20420;-82
2021/11/24 02:51:34;;;;;;;35.03;12.30;;;5.40;97.30;;;;;;5055779;28;20450;-83
2021/11/24 02:54:00;;;;;;;29.50;10.90;;;5.30;97.30;;;;;;5055543;28;20186;-83
2021/11/24 02:56:27;;;;;;;34.70;13.43;;;5.30;97.30;;;;;;5055622;28;20492;-83
2021/11/24 02:58:52;;;;;;;34.87;13.60;;;5.30;97.30;;;;;;5055860;28;20414;-83
2021/11/24 03:01:18;;;;;;;37.33;14.10;;;5.30;97.30;;;;;;5055411;28;20471;-82
2021/11/24 03:03:43;;;;;;;30.63;12.73;;;5.30;97.30;;;;;;5054752;28;20682;-82
2021/11/24 03:06:09;;;;;;;39.03;13.03;;;5.30;97.30;;;;;;5055621;28;20200;-82
2021/11/24 03:08:35;;;;;;;32.87;11.90;;;5.30;97.30;;;;;;5055227;28;20183;-83
2021/11/24 03:11:00;;;;;;;30.33;12.70;;;5.30;97.30;;;;;;5055100;28;20179;-83
2021/11/24 03:13:26;;;;;;;37.40;14.30;;;5.30;97.30;;;;;;5055445;28;20657;-83
2021/11/24 03:15:51;;;;;;;34.87;13.13;;;5.30;97.30;;;;;;5054884;28;20222;-82
2021/11/24 03:18:17;;;;;;;35.97;12.77;;;5.40;97.30;;;;;;5055387;28;20692;-83
2021/11/24 03:20:43;;;;;;;48.43;14.10;;;5.40;97.30;;;;;;5054762;28;20237;-82
2021/11/24 03:23:08;;;;;;;48.37;15.07;;;5.40;97.30;;;;;;5054813;28;20228;-83
2021/11/24 03:25:34;;;;;;;41.93;13.67;;;5.40;97.30;;;;;;5055070;28;20196;-83
2021/11/24 03:28:00;;;;;;;39.80;13.63;;;5.40;97.30;;;;;;5055893;28;20179;-83
2021/11/24 03:30:28;;;;;;;36.30;15.33;;;5.40;97.30;;;;;;5054673;28;20791;-83
2021/11/24 03:32:55;;;;;;;42.80;13.67;;;5.40;97.30;;;;;;5053970;28;20414;-83
2021/11/24 03:35:23;;;;;;;35.37;13.27;;;5.40;97.30;;;;;;5054013;28;20484;-83
2021/11/24 03:37:51;;;;;;;35.47;13.27;;;5.40;97.30;;;;;;5054519;28;20452;-83
2021/11/24 03:40:21;;;;;;;50.20;14.00;;;5.40;97.30;;;;;;5054077;28;21017;-83
2021/11/24 03:42:47;;;;;;;35.73;13.77;;;5.40;97.30;;;;;;5054159;28;20462;-82
2021/11/24 03:45:25;;;;;;;35.30;12.50;;;5.40;97.30;;;;;;5054080;28;20967;-82
2021/11/24 03:47:51;;;;;;;37.43;13.67;;;5.40;97.30;;;;;;5053734;28;20410;-83
2021/11/24 03:50:17;;;;;;;35.77;14.93;;;5.40;97.30;;;;;;5053729;28;20840;-83
2021/11/24 03:52:43;;;;;;;42.80;13.53;;;5.30;97.30;;;;;;5055199;28;20178;-83
2021/11/24 03:55:10;;;;;;;38.60;12.50;;;5.40;97.30;;;;;;5054083;28;20204;-83
2021/11/24 03:57:36;;;;;;;38.87;12.97;;;5.30;97.30;;;;;;5054493;28;20457;-83
2021/11/24 04:00:03;;;;;;;36.93;12.43;;;5.30;97.30;;;;;;5054010;28;20418;-82
2021/11/24 04:02:29;;;;;;;42.37;16.37;;;5.30;97.30;;;;;;5053678;28;20234;-83
2021/11/24 04:04:54;;;;;;;32.93;13.20;;;5.30;97.30;;;;;;5053681;28;20406;-83
2021/11/24 04:07:20;;;;;;;41.03;14.67;;;5.30;97.30;;;;;;5053844;28;20174;-82
2021/11/24 04:09:47;;;;;;;34.67;12.53;;;5.30;97.30;;;;;;5053947;28;20553;-82
2021/11/24 04:12:13;;;;;;;37.10;16.57;;;5.30;97.30;;;;;;5054144;28;20180;-82
2021/11/24 04:14:38;;;;;;;40.00;13.27;;;5.30;97.30;;;;;;5053824;28;20425;-82
2021/11/24 04:17:04;;;;;;;38.83;14.27;;;5.30;97.30;;;;;;5055183;28;20191;-82
2021/11/24 04:19:29;;;;;;;47.33;13.57;;;5.30;97.30;;;;;;5053765;28;20176;-82
2021/11/24 04:21:55;;;;;;;38.70;13.30;;;5.30;97.30;;;;;;5053689;28;20288;-83
2021/11/24 04:24:21;;;;;;;36.90;12.43;;;5.30;97.30;;;;;;5053934;28;20187;-83
2021/11/24 04:26:46;;;;;;;34.50;14.77;;;5.30;97.30;;;;;;5053474;28;20196;-82
2021/11/24 04:29:12;;;;;;;33.67;12.80;;;5.30;97.30;;;;;;5053316;28;20176;-83
2021/11/24 04:31:37;;;;;;;36.53;12.27;;;5.30;97.30;;;;;;5053641;28;20186;-82
2021/11/24 04:34:03;;;;;;;41.30;14.33;;;5.30;97.30;;;;;;5053495;28;20185;-83
2021/11/24 04:36:28;;;;;;;40.17;12.73;;;5.30;97.30;;;;;;5053315;28;20293;-83
2021/11/24 04:38:54;;;;;;;36.60;12.00;;;5.30;97.30;;;;;;5054327;28;20180;-83
2021/11/24 04:41:19;;;;;;;35.33;12.47;;;5.30;97.30;;;;;;5053525;28;20703;-83
2021/11/24 04:43:47;;;;;;;39.30;14.77;;;5.30;97.30;;;;;;5054191;28;20199;-82
2021/11/24 04:46:15;;;;;;;39.43;14.70;;;5.30;97.30;;;;;;5057775;28;20195;-82
2021/11/24 04:48:41;;;;;;;31.47;13.50;;;5.30;97.30;;;;;;5057836;28;20954;-82
2021/11/24 04:51:06;;;;;;;40.43;15.27;;;5.20;97.30;;;;;;5057524;28;20399;-82
2021/11/24 04:53:32;;;;;;;32.27;13.83;;;5.20;97.30;;;;;;5057511;28;20475;-82
2021/11/24 04:55:58;;;;;;;33.50;13.90;;;5.20;97.30;;;;;;5057583;28;20240;-82
2021/11/24 04:58:24;;;;;;;39.60;15.13;;;5.20;97.30;;;;;;5057600;28;20186;-82
2021/11/24 05:00:49;;;;;;;38.93;13.60;;;5.30;97.30;;;;;;5057816;28;20176;-82
2021/11/24 05:03:16;;;;;;;37.20;14.70;;;5.30;97.30;;;;;;5057898;28;20195;-82
2021/11/24 05:05:42;;;;;;;42.10;15.27;;;5.20;97.30;;;;;;5058658;28;20188;-82
2021/11/24 05:08:07;;;;;;;44.00;15.00;;;5.30;97.30;;;;;;5059047;28;20414;-82
2021/11/24 05:10:33;;;;;;;45.67;15.30;;;5.30;97.30;;;;;;5057629;28;20414;-83
2021/11/24 05:12:59;;;;;;;59.00;17.83;;;5.30;97.30;;;;;;5056779;28;20188;-83
2021/11/24 05:15:31;;;;;;;42.33;16.90;;;5.30;97.30;;;;;;5056858;28;20448;-83
2021/11/24 05:18:01;;;;;;;40.47;15.43;;;5.30;97.30;;;;;;5056904;28;20547;-83
2021/11/24 05:20:30;;;;;;;50.70;16.40;;;5.30;97.30;;;;;;5056668;28;20439;-83
2021/11/24 05:22:59;;;;;;;40.73;13.57;;;5.30;97.30;;;;;;5056120;28;20585;-83
2021/11/24 05:25:25;;;;;;;44.77;14.50;;;5.30;97.30;;;;;;5056428;28;20445;-83
2021/11/24 05:27:51;;;;;;;37.17;13.90;;;5.30;97.30;;;;;;5056128;28;20509;-83
2021/11/24 05:30:17;;;;;;;35.50;14.17;;;5.30;97.30;;;;;;5056444;28;20446;-83
2021/11/24 05:32:42;;;;;;;42.40;14.47;;;5.30;97.30;;;;;;5057611;28;20437;-83
2021/11/24 05:35:08;;;;;;;42.83;13.40;;;5.30;97.30;;;;;;5056417;28;20228;-83
2021/11/24 05:37:34;;;;;;;43.03;14.53;;;5.40;97.30;;;;;;5056624;28;20179;-83
2021/11/24 05:39:59;;;;;;;37.60;14.17;;;5.40;97.30;;;;;;5056011;28;20186;-83
2021/11/24 05:42:27;;;;;;;33.53;13.90;;;5.40;97.30;;;;;;5056264;28;20207;-83
2021/11/24 05:45:02;;;;;;;37.07;13.83;;;5.40;97.30;;;;;;5055980;28;20225;-83
2021/11/24 05:50:12;;;;;;;38.50;13.70;;;5.50;97.30;;;;;;5057400;28;20425;-83
2021/11/24 05:52:38;;;;;;;35.17;11.23;;;5.50;97.30;;;;;;5056193;28;21017;-83
2021/11/24 05:55:04;;;;;;;34.47;13.40;;;5.40;97.30;;;;;;5055659;28;20253;-83
2021/11/24 05:57:30;;;;;;;48.40;16.10;;;5.50;97.30;;;;;;5056244;28;20176;-83
2021/11/24 05:59:56;;;;;;;42.30;15.70;;;5.50;97.30;;;;;;5057485;28;20418;-84
2021/11/24 06:02:22;;;;;;;42.33;16.70;;;5.50;97.30;;;;;;5055948;28;20303;-83
2021/11/24 06:04:48;;;;;;;47.77;15.33;;;5.40;97.30;;;;;;5055614;28;20446;-83
2021/11/24 06:07:13;;;;;;;42.63;15.43;;;5.50;97.30;;;;;;5056010;28;20199;-83
2021/11/24 06:09:39;;;;;;;37.20;14.67;;;5.40;97.30;;;;;;5055398;28;20191;-83
2021/11/24 06:12:05;;;;;;;51.27;16.83;;;5.50;97.30;;;;;;5056071;28;20180;-83
2021/11/24 06:14:30;;;;;;;40.90;14.43;;;5.50;97.30;;;;;;5055835;28;20552;-82
2021/11/24 06:16:57;;;;;;;48.07;16.33;;;5.50;97.30;;;;;;5055954;28;20433;-83
2021/11/24 06:19:23;;;;;;;66.97;16.60;;;5.50;97.30;;;;;;5055754;28;20183;-82
2021/11/24 06:21:49;;;;;;;44.87;15.47;;;5.40;97.30;;;;;;5055353;28;20418;-83
2021/11/24 06:24:15;;;;;;;48.80;16.20;;;5.50;97.30;;;;;;5055768;28;20418;-83
2021/11/24 06:26:41;;;;;;;56.20;16.50;;;5.50;97.30;;;;;;5055275;28;20567;-83
2021/11/24 06:29:06;;;;;;;42.47;15.83;;;5.50;97.30;;;;;;5055282;28;20187;-83
2021/11/24 06:31:32;;;;;;;41.53;14.40;;;5.50;97.30;;;;;;5055408;28;20793;-83
2021/11/24 06:33:57;;;;;;;42.43;15.20;;;5.50;97.30;;;;;;5055231;28;20214;-83
2021/11/24 06:36:24;;;;;;;34.90;12.87;;;5.50;97.30;;;;;;5055255;28;20264;-83
2021/11/24 06:38:51;;;;;;;42.97;14.20;;;5.50;97.30;;;;;;5055311;28;20172;-81
2021/11/24 06:41:16;;;;;;;38.73;15.77;;;5.50;97.30;;;;;;5055147;28;20414;-82
2021/11/24 06:43:42;;;;;;;40.50;14.03;;;5.50;97.30;;;;;;5055011;28;20457;-81
2021/11/24 06:46:08;;;;;;;40.87;14.93;;;5.50;97.30;;;;;;5054793;28;20200;-82
2021/11/24 06:48:34;;;;;;;40.47;14.80;;;5.50;97.30;;;;;;5055269;28;20268;-83
2021/11/24 06:51:00;;;;;;;41.17;14.77;;;5.50;97.30;;;;;;5056235;28;20199;-81
2021/11/24 06:53:26;;;;;;;42.07;15.37;;;5.50;97.30;;;;;;5056631;28;20418;-83
2021/11/24 06:55:52;;;;;;;43.20;16.63;;;5.60;97.30;;;;;;5055337;28;20827;-81
2021/11/24 06:58:17;;;;;;;43.80;15.40;;;5.60;97.30;;;;;;5054950;28;20175;-81
2021/11/24 07:00:43;;;;;;;45.60;15.27;;;5.60;97.30;;;;;;5054978;28;20184;-81
2021/11/24 07:03:09;;;;;;;40.43;15.80;;;5.60;97.30;;;;;;5054686;28;20294;-81
2021/11/24 07:05:34;;;;;;;60.30;18.93;;;5.60;97.30;;;;;;5056200;28;20715;-82
2021/11/24 07:08:00;;;;;;;47.60;16.97;;;5.60;97.30;;;;;;5054000;28;20175;-82
2021/11/24 07:10:26;;;;;;;50.63;15.30;;;5.60;97.30;;;;;;5055042;28;20630;-81
2021/11/24 07:12:51;;;;;;;42.70;15.77;;;5.60;97.30;;;;;;5054681;28;20187;-81
2021/11/24 07:15:17;;;;;;;45.00;16.57;;;5.60;97.30;;;;;;5054740;28;20203;-81
2021/11/24 07:17:43;;;;;;;43.00;16.00;;;5.60;97.30;;;;;;5054607;28;20275;-81
2021/11/24 07:20:09;;;;;;;47.50;16.47;;;5.60;97.30;;;;;;5054356;28;20601;-81
2021/11/24 07:22:34;;;;;;;48.83;15.97;;;5.70;97.30;;;;;;5054124;28;20235;-83
2021/11/24 07:25:00;;;;;;;47.63;16.90;;;5.70;97.30;;;;;;5055854;28;20406;-82
2021/11/24 07:27:26;;;;;;;47.50;16.50;;;5.70;97.30;;;;;;5054481;28;20172;-82
2021/11/24 07:29:52;;;;;;;41.63;15.80;;;5.80;97.30;;;;;;5054307;28;20437;-82
2021/11/24 07:32:18;;;;;;;46.20;15.43;;;5.80;97.30;;;;;;5054014;28;21001;-82
2021/11/24 07:34:43;;;;;;;39.07;14.60;;;5.80;97.30;;;;;;5055456;28;20176;-82
2021/11/24 07:37:09;;;;;;;38.67;15.40;;;5.90;97.30;;;;;;5054604;28;20276;-82
2021/11/24 07:39:35;;;;;;;44.50;14.60;;;5.90;97.30;;;;;;5053600;28;20186;-83
2021/11/24 07:42:00;;;;;;;47.40;16.20;;;6.00;97.30;;;;;;5052151;28;20190;-83
2021/11/24 07:44:26;;;;;;;39.40;13.73;;;6.00;97.30;;;;;;5053635;28;20805;-83
2021/11/24 07:46:52;;;;;;;48.30;15.20;;;5.90;97.30;;;;;;5052441;28;20200;-83
2021/11/24 07:49:17;;;;;;;39.20;14.73;;;6.00;97.30;;;;;;5052116;28;20422;-82
2021/11/24 07:51:43;;;;;;;48.33;16.93;;;6.00;97.30;;;;;;5052245;28;20168;-83
2021/11/24 07:54:09;;;;;;;49.80;16.30;;;6.00;97.30;;;;;;5053307;28;20176;-83
2021/11/24 07:56:34;;;;;;;38.53;13.80;;;6.00;97.30;;;;;;5051823;28;20246;-83
2021/11/24 07:59:00;;;;;;;48.73;15.93;;;6.00;97.30;;;;;;5052045;28;20180;-83
2021/11/24 08:01:25;;;;;;;45.30;15.17;;;6.00;97.30;;;;;;5052101;28;20183;-83
2021/11/24 08:03:51;;;;;;;49.63;16.10;;;6.00;97.30;;;;;;5051805;28;20280;-83
2021/11/24 08:06:16;;;;;;;40.80;14.67;;;6.10;97.30;;;;;;5051652;28;20195;-83
2021/11/24 08:08:42;;;;;;;43.50;14.80;;;6.10;97.30;;;;;;5052072;28;20198;-83
2021/11/24 08:11:08;;;;;;;47.73;17.63;;;6.10;97.30;;;;;;5051784;28;20270;-83
2021/11/24 08:13:33;;;;;;;43.83;15.60;;;6.10;97.30;;;;;;5052646;28;20182;-83
2021/11/24 08:15:59;;;;;;;43.43;14.33;;;6.10;97.30;;;;;;5051815;28;20298;-83
2021/11/24 08:18:25;;;;;;;42.10;15.30;;;6.10;97.30;;;;;;5051754;28;20418;-83
2021/11/24 08:20:51;;;;;;;34.63;13.93;;;6.10;97.30;;;;;;5052652;28;20581;-83
2021/11/24 08:23:16;;;;;;;43.17;15.70;;;6.10;97.30;;;;;;5051253;28;20227;-83
2021/11/24 08:25:42;;;;;;;43.27;15.30;;;6.10;97.30;;;;;;5051248;28;20422;-83
2021/11/24 08:28:08;;;;;;;47.27;16.67;;;6.10;97.30;;;;;;5051265;28;20175;-83
2021/11/24 08:30:33;;;;;;;43.43;13.83;;;6.10;97.30;;;;;;5051270;28;20425;-83
2021/11/24 08:32:59;;;;;;;45.37;16.23;;;6.10;97.30;;;;;;5051402;28;20417;-83
2021/11/24 08:35:25;;;;;;;37.93;14.53;;;6.10;97.30;;;;;;5051562;28;20195;-83
2021/11/24 08:37:51;;;;;;;44.70;17.37;;;6.20;97.30;;;;;;5051346;28;20262;-83
2021/11/24 08:40:17;;;;;;;45.83;14.40;;;6.20;97.30;;;;;;5051054;28;20453;-83
2021/11/24 08:42:43;;;;;;;40.03;13.60;;;6.30;97.30;;;;;;5051339;28;20898;-83
2021/11/24 08:45:10;;;;;;;37.73;13.97;;;6.30;97.30;;;;;;5051706;28;20168;-83
2021/11/24 08:47:37;;;;;;;39.93;14.97;;;6.30;97.30;;;;;;5051694;28;20552;-83
2021/11/24 08:50:06;;;;;;;41.63;15.43;;;6.40;97.30;;;;;;5051113;28;20448;-83
2021/11/24 08:52:32;;;;;;;43.90;16.07;;;6.40;97.30;;;;;;5051080;28;20410;-83
2021/11/24 08:54:58;;;;;;;37.67;14.00;;;6.40;97.30;;;;;;5050694;28;20787;-83
2021/11/24 08:57:23;;;;;;;83.60;17.37;;;6.40;97.30;;;;;;5050783;28;20422;-84
2021/11/24 08:59:49;;;;;;;43.10;17.60;;;6.40;97.30;;;;;;5052569;28;20414;-82
2021/11/24 09:02:15;;;;;;;44.50;16.50;;;6.50;97.30;;;;;;5050882;28;20622;-83
2021/11/24 09:04:41;;;;;;;35.50;13.93;;;6.50;97.30;;;;;;5050925;28;20406;-84
2021/11/24 09:07:07;;;;;;;48.37;14.57;;;6.50;97.30;;;;;;5052508;28;20187;-83
2021/11/24 09:09:39;;;;;;;44.77;14.93;;;6.50;97.30;;;;;;5050909;28;20176;-83
2021/11/24 09:12:05;;;;;;;42.37;14.40;;;6.40;97.30;;;;;;5051228;28;20406;-83
2021/11/24 09:14:31;;;;;;;40.57;15.07;;;6.50;97.30;;;;;;5051406;28;20410;-83
2021/11/24 09:16:56;;;;;;;45.43;16.40;;;6.50;97.30;;;;;;5051164;28;20430;-83
2021/11/24 09:19:22;;;;;;;41.07;16.27;;;6.60;97.30;;;;;;5051172;28;20168;-84
2021/11/24 09:21:49;;;;;;;41.57;15.30;;;6.60;97.30;;;;;;5050741;28;20172;-83
2021/11/24 09:24:21;;;;;;;43.10;14.67;;;6.60;97.30;;;;;;5050572;28;20286;-83
2021/11/24 09:27:30;;;;;;;49.27;15.87;;;6.60;97.30;;;;;;5046661;28;20441;-83
2021/11/24 09:29:35;;;;;;;40.83;14.37;;;6.60;97.30;;;;;;5049370;28;20414;-83
2021/11/24 09:32:04;;;;;;;51.67;16.53;;;6.70;97.30;;;;;;5053907;28;20501;-83
2021/11/24 09:34:30;;;;;;;42.40;14.77;;;6.70;97.30;;;;;;5054213;28;20590;-83
2021/11/24 09:36:57;;;;;;;48.30;14.53;;;6.70;97.30;;;;;;5054380;28;20859;-83
2021/11/24 09:39:23;;;;;;;38.37;14.30;;;6.80;97.30;;;;;;5054598;28;20433;-83
2021/11/24 09:41:50;;;;;;;45.03;14.87;;;6.80;97.30;;;;;;5054380;28;20411;-83
2021/11/24 09:44:16;;;;;;;42.70;14.23;;;6.80;97.30;;;;;;5054335;28;20200;-83
2021/11/24 09:46:48;;;;;;;52.20;14.87;;;6.90;97.30;;;;;;5054004;28;20801;-83
2021/11/24 09:49:16;;;;;;;40.93;14.00;;;6.90;97.30;;;;;;5054289;28;20422;-83
2021/11/24 09:51:43;;;;;;;40.27;14.20;;;7.00;97.30;;;;;;5054174;28;20450;-83
2021/11/24 09:54:10;;;;;;;40.20;15.40;;;7.00;97.30;;;;;;5053947;28;20423;-83
2021/11/24 09:56:39;;;;;;;39.63;14.60;;;7.00;97.30;;;;;;5054016;28;20469;-83
2021/11/24 09:59:05;;;;;;;40.63;17.27;;;7.00;97.30;;;;;;5050852;28;20426;-83
2021/11/24 10:01:31;;;;;;;34.07;13.13;;;7.10;97.30;;;;;;5035266;28;20420;-83
2021/11/24 10:03:56;;;;;;;33.20;13.20;;;7.10;97.30;;;;;;5033733;28;20212;-84
2021/11/24 10:06:22;;;;;;;40.70;14.70;;;7.10;97.30;;;;;;5033854;28;20192;-83
2021/11/24 10:08:51;;;;;;;38.87;15.30;;;7.10;97.30;;;;;;5034262;28;20596;-83
2021/11/24 10:11:17;;;;;;;42.13;14.30;;;7.10;97.30;;;;;;5033908;28;20419;-83
2021/11/24 10:13:46;;;;;;;41.77;15.83;;;7.20;97.30;;;;;;5033925;28;20514;-83
2021/11/24 10:16:26;;;;;;;41.30;14.93;;;7.20;97.30;;;;;;5033437;28;20458;-83
2021/11/24 10:19:12;;;;;;;39.40;14.97;;;7.20;97.30;;;;;;5033643;28;20439;-83
2021/11/24 10:21:55;;;;;;;38.10;16.20;;;7.20;97.30;;;;;;5033380;28;20419;-83
2021/11/24 10:24:39;;;;;;;38.47;14.80;;;7.30;97.30;;;;;;5033681;28;20470;-83
2021/11/24 10:27:07;;;;;;;42.80;13.80;;;7.20;97.30;;;;;;5033067;28;20446;-83
2021/11/24 10:29:34;;;;;;;42.50;15.20;;;7.30;97.30;;;;;;5034709;28;20438;-83
2021/11/24 10:32:03;;;;;;;41.90;15.40;;;7.30;97.30;;;;;;5033406;28;20423;-83
2021/11/24 10:34:34;;;;;;;41.23;15.10;;;7.30;97.30;;;;;;5033195;28;20415;-83
2021/11/24 10:37:08;;;;;;;43.83;14.77;;;7.30;97.30;;;;;;5033490;28;20435;-83
2021/11/24 10:39:45;;;;;;;49.23;16.03;;;7.40;97.30;;;;;;5033528;28;20453;-83
2021/11/24 10:42:21;;;;;;;41.10;15.00;;;7.40;97.30;;;;;;5033043;28;20488;-83
2021/11/24 10:44:49;;;;;;;42.77;15.73;;;7.50;97.30;;;;;;5033323;28;20792;-83
2021/11/24 10:47:17;;;;;;;38.50;14.63;;;7.50;97.30;;;;;;5033470;28;20410;-83
2021/11/24 10:49:44;;;;;;;41.27;14.40;;;7.50;97.30;;;;;;5033145;28;20416;-84
2021/11/24 10:52:23;;;;;;;42.23;14.90;;;7.50;97.30;;;;;;5032598;28;20458;-83
2021/11/24 10:55:27;;;;;;;35.73;15.03;;;7.60;97.30;;;;;;5048233;28;20422;-83
2021/11/24 10:58:03;;;;;;;37.63;13.10;;;7.60;97.30;;;;;;5050738;28;20481;-83
2021/11/24 11:00:44;;;;;;;43.97;13.60;;;7.70;97.30;;;;;;5052667;28;20421;-83
2021/11/24 11:03:11;;;;;;;39.10;13.70;;;7.70;97.30;;;;;;5052128;28;20450;-83
2021/11/24 11:05:41;;;;;;;39.07;13.37;;;7.80;97.30;;;;;;5052448;28;20435;-83
2021/11/24 11:08:09;;;;;;;37.23;14.50;;;7.80;97.30;;;;;;5052681;28;20518;-84
2021/11/24 11:10:40;;;;;;;37.00;15.07;;;7.80;97.30;;;;;;5053830;28;20410;-83
2021/11/24 11:13:11;;;;;;;39.23;13.97;;;7.80;97.30;;;;;;5052650;28;20780;-83
2021/11/24 11:15:44;;;;;;;35.97;13.10;;;7.80;97.30;;;;;;5052586;28;20517;-83
2021/11/24 11:18:25;;;;;;;39.13;15.03;;;7.80;97.30;;;;;;5050450;28;20450;-83
2021/11/24 11:21:01;;;;;;;36.40;13.30;;;7.80;97.30;;;;;;5052666;28;20497;-84
2021/11/24 11:23:29;;;;;;;44.40;14.77;;;7.90;97.30;;;;;;5052263;28;20499;-83
2021/11/24 11:26:03;;;;;;;43.50;16.20;;;7.90;97.30;;;;;;5052675;28;20446;-83
2021/11/24 11:28:41;;;;;;;52.73;17.30;;;7.90;97.30;;;;;;5052205;28;20493;-83
2021/11/24 11:31:10;;;;;;;41.10;13.80;;;7.90;97.30;;;;;;5052373;28;20434;-83
2021/11/24 11:33:39;;;;;;;37.90;13.23;;;7.90;97.30;;;;;;5052520;28;20448;-84
2021/11/24 11:36:08;;;;;;;39.53;15.30;;;7.90;97.30;;;;;;5052018;28;20460;-84
2021/11/24 11:38:36;;;;;;;40.00;13.90;;;7.90;97.30;;;;;;5051987;28;20418;-83
2021/11/24 11:41:03;;;;;;;38.80;15.10;;;7.90;97.30;;;;;;5051673;28;20438;-84
2021/11/24 11:43:30;;;;;;;44.53;14.30;;;7.90;97.30;;;;;;5051770;28;20869;-84
2021/11/24 11:45:56;;;;;;;36.80;15.37;;;7.90;97.30;;;;;;5052104;28;20437;-84
2021/11/24 11:48:31;;;;;;;36.77;12.73;;;7.90;97.30;;;;;;5052224;28;20449;-83
2021/11/24 11:51:01;;;;;;;36.00;14.47;;;8.00;97.30;;;;;;5051883;28;20414;-84
2021/11/24 11:53:32;;;;;;;37.63;12.87;;;8.00;97.30;;;;;;5051668;28;20480;-83
2021/11/24 11:56:15;;;;;;;35.77;13.27;;;8.00;97.30;;;;;;5052199;28;20442;-84
2021/11/24 11:59:02;;;;;;;36.90;13.90;;;8.00;97.30;;;;;;5052362;28;20414;-84
2021/11/24 12:01:34;;;;;;;29.80;11.50;;;8.10;97.30;;;;;;5051903;28;20413;-83
2021/11/24 12:04:06;;;;;;;29.77;12.30;;;8.10;97.30;;;;;;5051366;28;20459;-83
2021/11/24 12:06:46;;;;;;;37.03;13.03;;;8.10;97.30;;;;;;5051261;28;20441;-83
2021/11/24 12:09:11;;;;;;;31.87;12.30;;;8.10;97.30;;;;;;5051496;28;20417;-84
2021/11/24 12:11:59;;;;;;;33.00;12.70;;;8.00;97.30;;;;;;5052850;28;20801;-84
2021/11/24 12:14:46;;;;;;;35.10;12.43;;;8.00;97.30;;;;;;5051738;28;20171;-84
2021/11/24 12:17:33;;;;;;;33.70;12.67;;;8.00;97.30;;;;;;5051388;28;20426;-83
2021/11/24 12:20:04;;;;;;;32.97;12.23;;;8.10;97.30;;;;;;5051405;28;20406;-83
2021/11/24 12:22:47;;;;;;;38.20;13.07;;;8.10;97.30;;;;;;5052301;28;20477;-84
2021/11/24 12:27:51;;;;;;;35.40;14.10;;;8.20;97.30;;;;;;5052814;28;20499;-83
2021/11/24 12:30:47;;;;;;;30.83;13.47;;;8.30;97.30;;;;;;5051646;28;20528;-84
2021/11/24 12:33:21;;;;;;;36.83;13.03;;;8.30;97.30;;;;;;5051426;28;20419;-84
2021/11/24 12:36:12;;;;;;;38.93;13.73;;;8.30;97.30;;;;;;5051404;28;20449;-84
2021/11/24 12:38:50;;;;;;;33.17;14.03;;;8.30;97.30;;;;;;5051464;28;20418;-83
2021/11/24 12:41:28;;;;;;;33.27;12.00;;;8.30;97.30;;;;;;5051893;28;20418;-83
2021/11/24 12:43:59;;;;;;;32.40;12.40;;;8.30;97.30;;;;;;5051208;28;20458;-83
2021/11/24 12:46:27;;;;;;;33.40;11.27;;;8.20;97.30;;;;;;5051175;28;20430;-84